Time;durP1;ratioP1;P1;durP2;ratioP2;P2;SDS_P1;SDS_P2;PMS_P1;PMS_P2;Temp;Humidity;BMP_temperature;BMP_pressure;BME280_temperature;BME280_humidity;BME280_pressure;Samples;Min_cycle;Max_cycle;Signal;HPM_P1;HPM_P2
2023/08/08 00:00:05;;;;;;;;;;;20.80;71.10;;;;;;4999188;28;1918;-69
2023/08/08 00:02:31;;;;;;;;;;;20.70;71.00;;;;;;4984578;28;837;-69
2023/08/08 00:04:56;;;;;;;;;;;20.70;71.00;;;;;;5003986;28;1386;-69
2023/08/08 00:07:22;;;;;;;;;;;20.80;71.10;;;;;;5000625;28;929;-71
2023/08/08 00:09:47;;;;;;;;;;;20.80;71.20;;;;;;4998171;28;841;-70
2023/08/08 00:12:13;;;;;;;;;;;20.80;71.10;;;;;;4999805;28;842;-70
2023/08/08 00:14:38;;;;;;;;;;;20.80;71.10;;;;;;4999957;28;1253;-70
2023/08/08 00:17:04;;;;;;;;;;;20.70;71.10;;;;;;4996934;28;947;-70
2023/08/08 00:19:29;;;;;;;;;;;20.80;71.10;;;;;;4996204;28;1906;-71
2023/08/08 00:21:55;;;;;;;;;;;20.70;71.10;;;;;;5002194;28;793;-70
2023/08/08 00:24:20;;;;;;;;;;;20.80;71.10;;;;;;4999681;28;1220;-70
2023/08/08 00:26:45;;;;;;;;;;;20.80;71.10;;;;;;4999718;28;947;-70
2023/08/08 00:29:11;;;;;;;;;;;20.80;71.10;;;;;;4998267;28;1249;-70
2023/08/08 00:31:36;;;;;;;;;;;20.80;71.10;;;;;;4999417;28;1605;-68
2023/08/08 00:34:02;;;;;;;;;;;20.80;71.10;;;;;;4999039;28;1848;-68
2023/08/08 00:36:27;;;;;;;;;;;20.80;71.10;;;;;;4998486;28;866;-69
2023/08/08 00:38:53;;;;;;;;;;;20.70;71.10;;;;;;4994808;28;1638;-69
2023/08/08 00:41:18;;;;;;;;;;;20.70;71.80;;;;;;5000099;28;1964;-69
2023/08/08 00:43:44;;;;;;;;;;;20.70;71.10;;;;;;4989802;28;1184;-69
2023/08/08 00:46:09;;;;;;;;;;;20.80;71.20;;;;;;4999304;28;1280;-69
2023/08/08 00:48:35;;;;;;;;;;;20.70;71.10;;;;;;4986975;28;896;-71
2023/08/08 00:51:00;;;;;;;;;;;20.80;71.10;;;;;;4996475;28;1073;-70
2023/08/08 00:53:28;;;;;;;;;;;20.80;71.20;;;;;;4978510;28;870;-69
2023/08/08 00:55:53;;;;;;;;;;;20.80;71.20;;;;;;4995769;28;1280;-69
2023/08/08 00:58:19;;;;;;;;;;;20.80;71.20;;;;;;4998894;28;971;-70
2023/08/08 01:00:44;;;;;;;;;;;20.70;71.10;;;;;;4999588;28;1965;-69
2023/08/08 01:03:10;;;;;;;;;;;20.80;71.20;;;;;;4998419;28;872;-69
2023/08/08 01:05:38;;;;;;;;;;;20.70;71.10;;;;;;5001128;28;1365;-69
2023/08/08 01:08:04;;;;;;;;;;;20.70;71.10;;;;;;4994452;28;895;-69
2023/08/08 01:10:30;;;;;;;;;;;20.80;71.20;;;;;;4996768;28;851;-70
2023/08/08 01:12:56;;;;;;;;;;;20.80;71.20;;;;;;4997480;28;1743;-70
2023/08/08 01:15:21;;;;;;;;;;;20.70;71.70;;;;;;4981462;28;1266;-70
2023/08/08 01:17:47;;;;;;;;;;;20.80;71.20;;;;;;4982145;28;1034;-69
2023/08/08 01:20:16;;;;;;;;;;;20.70;71.10;;;;;;5000516;28;1954;-69
2023/08/08 01:22:56;;;;;;;;;;;20.80;71.20;;;;;;5001344;28;852;-71
2023/08/08 01:25:21;;;;;;;;;;;20.70;71.10;;;;;;4999214;28;1367;-70
2023/08/08 01:27:46;;;;;;;;;;;20.80;71.20;;;;;;4998146;28;936;-70
2023/08/08 01:30:12;;;;;;;;;;;20.80;71.20;;;;;;4997321;28;1015;-69
2023/08/08 01:32:37;;;;;;;;;;;20.70;71.10;;;;;;5000336;28;879;-69
2023/08/08 01:35:03;;;;;;;;;;;20.80;71.20;;;;;;5000347;28;1296;-70
2023/08/08 01:37:30;;;;;;;;;;;20.70;71.10;;;;;;4984804;28;1059;-70
2023/08/08 01:39:58;;;;;;;;;;;20.80;71.20;;;;;;5000053;28;1899;-69
2023/08/08 01:42:24;;;;;;;;;;;20.80;71.20;;;;;;4985963;28;1221;-69
2023/08/08 01:44:50;;;;;;;;;;;20.80;71.20;;;;;;4987279;28;1385;-69
2023/08/08 01:47:15;;;;;;;;;;;20.80;71.20;;;;;;5000515;28;855;-69
2023/08/08 01:49:40;;;;;;;;;;;20.80;71.20;;;;;;5002974;28;908;-70
2023/08/08 01:52:06;;;;;;;;;;;20.70;71.10;;;;;;4998078;28;1054;-70
2023/08/08 01:54:31;;;;;;;;;;;20.70;71.10;;;;;;4999635;28;1275;-69
2023/08/08 01:56:57;;;;;;;;;;;20.80;71.20;;;;;;5001004;28;949;-70
2023/08/08 01:59:22;;;;;;;;;;;20.80;71.20;;;;;;5001202;28;1906;-69
2023/08/08 02:01:48;;;;;;;;;;;20.70;71.10;;;;;;5003116;28;1309;-70
2023/08/08 02:04:13;;;;;;;;;;;20.80;71.20;;;;;;5001714;28;1295;-70
2023/08/08 02:06:39;;;;;;;;;;;20.80;71.20;;;;;;4998380;28;840;-70
2023/08/08 02:09:04;;;;;;;;;;;20.80;71.20;;;;;;5000593;28;983;-70
2023/08/08 02:11:30;;;;;;;;;;;20.70;71.20;;;;;;4998869;28;979;-70
2023/08/08 02:13:55;;;;;;;;;;;20.80;71.20;;;;;;4998168;28;912;-70
2023/08/08 02:16:21;;;;;;;;;;;20.80;71.20;;;;;;4998650;28;1182;-70
2023/08/08 02:18:46;;;;;;;;;;;20.80;71.30;;;;;;5001088;28;1293;-70
2023/08/08 02:21:11;;;;;;;;;;;20.80;71.20;;;;;;5000636;28;1946;-70
2023/08/08 02:23:37;;;;;;;;;;;20.70;71.10;;;;;;4983238;28;1274;-70
2023/08/08 02:26:03;;;;;;;;;;;20.80;71.20;;;;;;4999636;28;1337;-72
2023/08/08 02:28:28;;;;;;;;;;;20.80;71.20;;;;;;5001639;28;1311;-69
2023/08/08 02:30:54;;;;;;;;;;;20.70;71.10;;;;;;4997574;28;863;-69
2023/08/08 02:33:19;;;;;;;;;;;20.80;71.20;;;;;;4996587;28;903;-70
2023/08/08 02:35:45;;;;;;;;;;;20.70;71.10;;;;;;4997166;28;1341;-71
2023/08/08 02:38:10;;;;;;;;;;;20.70;71.20;;;;;;4998954;28;900;-69
2023/08/08 02:40:36;;;;;;;;;;;20.80;71.20;;;;;;4999847;28;1953;-69
2023/08/08 02:43:01;;;;;;;;;;;20.70;71.20;;;;;;5004257;28;793;-69
2023/08/08 02:45:27;;;;;;;;;;;20.80;71.20;;;;;;5005408;28;1243;-70
2023/08/08 02:47:52;;;;;;;;;;;20.80;71.20;;;;;;4984170;28;1265;-69
2023/08/08 02:50:18;;;;;;;;;;;20.70;71.10;;;;;;4998554;28;868;-69
2023/08/08 02:52:43;;;;;;;;;;;20.70;71.20;;;;;;4996429;28;938;-69
2023/08/08 02:55:08;;;;;;;;;;;20.70;71.20;;;;;;4998883;28;1366;-69
2023/08/08 02:57:34;;;;;;;;;;;20.80;71.20;;;;;;4998828;28;825;-69
2023/08/08 02:59:59;;;;;;;;;;;20.80;71.20;;;;;;5002067;28;1914;-70
2023/08/08 03:02:25;;;;;;;;;;;20.70;71.20;;;;;;4997605;28;878;-70
2023/08/08 03:04:51;;;;;;;;;;;20.80;71.30;;;;;;4999336;28;1281;-69
2023/08/08 03:07:16;;;;;;;;;;;20.70;71.20;;;;;;4983268;28;1509;-69
2023/08/08 03:09:42;;;;;;;;;;;20.70;71.20;;;;;;5001248;28;859;-69
2023/08/08 03:12:07;;;;;;;;;;;20.80;71.30;;;;;;4998224;28;819;-69
2023/08/08 03:14:33;;;;;;;;;;;20.70;71.20;;;;;;4999046;28;1368;-69
2023/08/08 03:16:59;;;;;;;;;;;20.80;71.30;;;;;;5000696;28;865;-69
2023/08/08 03:19:24;;;;;;;;;;;20.70;71.20;;;;;;5004199;28;1906;-70
2023/08/08 03:21:50;;;;;;;;;;;20.80;71.30;;;;;;5002699;28;947;-70
2023/08/08 03:24:15;;;;;;;;;;;20.80;71.30;;;;;;4999063;28;1268;-69
2023/08/08 03:26:41;;;;;;;;;;;20.80;71.30;;;;;;4999940;28;831;-70
2023/08/08 03:29:09;;;;;;;;;;;20.80;71.30;;;;;;4998409;28;1318;-69
2023/08/08 03:31:35;;;;;;;;;;;20.70;71.20;;;;;;5001060;28;851;-70
2023/08/08 03:34:00;;;;;;;;;;;20.80;71.30;;;;;;4997722;28;1042;-69
2023/08/08 03:36:26;;;;;;;;;;;20.80;71.30;;;;;;5000693;28;1278;-69
2023/08/08 03:38:51;;;;;;;;;;;20.80;71.30;;;;;;4998531;28;817;-69
2023/08/08 03:41:17;;;;;;;;;;;20.70;71.20;;;;;;4996333;28;1953;-69
2023/08/08 03:43:42;;;;;;;;;;;20.80;71.30;;;;;;4983390;28;1427;-69
2023/08/08 03:46:08;;;;;;;;;;;20.80;71.30;;;;;;4997083;28;1287;-69
2023/08/08 03:48:34;;;;;;;;;;;20.70;71.20;;;;;;4998642;28;930;-69
2023/08/08 03:50:59;;;;;;;;;;;20.70;71.20;;;;;;4994109;28;1062;-69
2023/08/08 03:53:24;;;;;;;;;;;20.70;71.20;;;;;;4998607;28;816;-69
2023/08/08 03:55:53;;;;;;;;;;;20.70;71.30;;;;;;5003412;28;1243;-69
2023/08/08 03:58:19;;;;;;;;;;;20.70;71.20;;;;;;4999002;28;824;-69
2023/08/08 04:00:46;;;;;;;;;;;20.70;71.20;;;;;;4998800;28;1965;-70
2023/08/08 04:03:14;;;;;;;;;;;20.80;71.30;;;;;;4996121;28;830;-70
2023/08/08 04:05:40;;;;;;;;;;;20.70;71.20;;;;;;4992822;28;1334;-70
2023/08/08 04:08:06;;;;;;;;;;;20.80;71.30;;;;;;4997196;28;837;-70
2023/08/08 04:10:31;;;;;;;;;;;20.80;71.30;;;;;;4995168;28;877;-70
2023/08/08 04:12:57;;;;;;;;;;;20.70;71.30;;;;;;4998905;28;931;-69
2023/08/08 04:15:22;;;;;;;;;;;20.80;71.30;;;;;;4997717;28;1304;-69
2023/08/08 04:17:48;;;;;;;;;;;20.70;71.20;;;;;;4998967;28;832;-69
2023/08/08 04:20:14;;;;;;;;;;;20.70;71.30;;;;;;5002627;28;1953;-69
2023/08/08 04:22:39;;;;;;;;;;;20.70;71.30;;;;;;4996636;28;1584;-69
2023/08/08 04:25:05;;;;;;;;;;;20.70;71.30;;;;;;4995861;28;1302;-69
2023/08/08 04:27:31;;;;;;;;;;;20.80;71.30;;;;;;4992883;28;1811;-69
2023/08/08 04:29:56;;;;;;;;;;;20.70;71.30;;;;;;4996210;28;1859;-69
2023/08/08 04:32:21;;;;;;;;;;;20.80;71.40;;;;;;4999881;28;1240;-68
2023/08/08 04:34:47;;;;;;;;;;;20.70;71.30;;;;;;4998736;28;1423;-68
2023/08/08 04:37:12;;;;;;;;;;;20.80;71.40;;;;;;4994359;28;801;-68
2023/08/08 04:39:38;;;;;;;;;;;20.80;71.30;;;;;;4997900;28;1903;-69
2023/08/08 04:42:03;;;;;;;;;;;20.70;71.30;;;;;;4994817;28;821;-68
2023/08/08 04:44:29;;;;;;;;;;;20.80;71.40;;;;;;4995462;28;1265;-69
2023/08/08 04:46:55;;;;;;;;;;;20.80;71.40;;;;;;4997734;28;1143;-69
2023/08/08 04:49:20;;;;;;;;;;;20.80;71.30;;;;;;5000582;28;880;-70
2023/08/08 04:51:46;;;;;;;;;;;20.70;71.30;;;;;;4996533;28;950;-70
2023/08/08 04:54:11;;;;;;;;;;;20.70;71.30;;;;;;4997141;28;1767;-72
2023/08/08 04:56:36;;;;;;;;;;;20.70;71.30;;;;;;5001084;28;883;-74
2023/08/08 04:59:02;;;;;;;;;;;20.80;71.30;;;;;;4994321;28;1286;-73
2023/08/08 05:01:27;;;;;;;;;;;20.80;71.40;;;;;;4997702;28;1973;-72
2023/08/08 05:03:53;;;;;;;;;;;20.80;71.30;;;;;;4998433;28;822;-73
2023/08/08 05:06:18;;;;;;;;;;;20.80;71.30;;;;;;4998690;28;1264;-72
2023/08/08 05:08:44;;;;;;;;;;;20.80;71.40;;;;;;4999786;28;846;-72
2023/08/08 05:11:09;;;;;;;;;;;20.70;71.30;;;;;;5005909;28;891;-72
2023/08/08 05:13:35;;;;;;;;;;;20.70;71.30;;;;;;5001140;28;813;-72
2023/08/08 05:16:00;;;;;;;;;;;20.70;71.30;;;;;;5005059;28;1325;-72
2023/08/08 05:18:26;;;;;;;;;;;20.80;71.30;;;;;;5004140;28;1361;-72
2023/08/08 05:20:51;;;;;;;;;;;20.70;71.30;;;;;;5004254;28;1919;-72
2023/08/08 05:23:17;;;;;;;;;;;20.70;71.30;;;;;;5002941;28;1007;-72
2023/08/08 05:25:42;;;;;;;;;;;20.80;71.30;;;;;;5003070;28;1282;-71
2023/08/08 05:28:08;;;;;;;;;;;20.80;71.30;;;;;;4998454;28;849;-73
2023/08/08 05:30:33;;;;;;;;;;;20.80;70.90;;;;;;5006229;28;805;-72
2023/08/08 05:32:58;;;;;;;;;;;20.80;69.00;;;;;;5004004;28;1038;-72
2023/08/08 05:35:24;;;;;;;;;;;20.70;68.10;;;;;;5002565;28;1246;-72
2023/08/08 05:37:49;;;;;;;;;;;20.70;67.50;;;;;;5004786;28;874;-72
2023/08/08 05:40:15;;;;;;;;;;;20.70;66.70;;;;;;5008898;28;1907;-71
2023/08/08 05:42:40;;;;;;;;;;;20.70;66.60;;;;;;5000087;28;817;-72
2023/08/08 05:45:06;;;;;;;;;;;20.70;65.80;;;;;;5003937;28;1275;-71
2023/08/08 05:47:32;;;;;;;;;;;20.70;65.50;;;;;;5003570;28;854;-73
2023/08/08 05:49:57;;;;;;;;;;;20.70;65.70;;;;;;4999857;28;895;-71
2023/08/08 05:52:23;;;;;;;;;;;20.70;65.00;;;;;;5002756;28;877;-72
2023/08/08 05:54:48;;;;;;;;;;;20.70;64.40;;;;;;5003706;28;1323;-73
2023/08/08 05:57:14;;;;;;;;;;;20.70;64.40;;;;;;4986626;28;912;-72
2023/08/08 05:59:39;;;;;;;;;;;20.70;64.30;;;;;;4998207;28;1910;-73
2023/08/08 06:02:05;;;;;;;;;;;20.70;64.10;;;;;;5001190;28;828;-72
2023/08/08 06:04:30;;;;;;;;;;;20.70;64.00;;;;;;5000057;28;1232;-73
2023/08/08 06:06:56;;;;;;;;;;;20.70;64.10;;;;;;5000953;28;1022;-72
2023/08/08 06:09:22;;;;;;;;;;;20.60;64.40;;;;;;5003801;28;868;-74
2023/08/08 06:11:47;;;;;;;;;;;20.60;64.60;;;;;;5000711;28;923;-73
2023/08/08 06:14:13;;;;;;;;;;;20.60;64.30;;;;;;5004781;28;1314;-72
2023/08/08 06:16:38;;;;;;;;;;;20.60;64.00;;;;;;5002027;28;1053;-72
2023/08/08 06:19:04;;;;;;;;;;;20.60;64.00;;;;;;4993996;28;1045;-72
2023/08/08 06:21:29;;;;;;;;;;;20.60;63.70;;;;;;4993149;28;1906;-71
2023/08/08 06:23:55;;;;;;;;;;;20.60;63.30;;;;;;5009907;28;881;-72
2023/08/08 06:26:21;;;;;;;;;;;20.60;63.20;;;;;;5007619;28;1200;-72
2023/08/08 06:28:47;;;;;;;;;;;20.60;63.10;;;;;;5001028;28;805;-73
2023/08/08 06:31:13;;;;;;;;;;;20.60;62.90;;;;;;5004661;28;880;-72
2023/08/08 06:33:38;;;;;;;;;;;20.60;62.90;;;;;;5001868;28;925;-74
2023/08/08 06:36:04;;;;;;;;;;;20.60;63.20;;;;;;5006460;28;1377;-71
2023/08/08 06:38:33;;;;;;;;;;;20.60;63.20;;;;;;4983520;28;828;-72
2023/08/08 06:41:02;;;;;;;;;;;20.50;62.90;;;;;;4998334;28;1918;-73
2023/08/08 06:43:27;;;;;;;;;;;20.50;62.80;;;;;;5002101;28;816;-72
2023/08/08 06:45:53;;;;;;;;;;;20.50;62.70;;;;;;5006173;28;1358;-72
2023/08/08 06:48:18;;;;;;;;;;;20.50;62.40;;;;;;5005982;28;911;-72
2023/08/08 06:50:44;;;;;;;;;;;20.50;62.30;;;;;;5000498;28;828;-71
2023/08/08 06:53:09;;;;;;;;;;;20.50;62.30;;;;;;5006940;28;895;-72
2023/08/08 06:55:35;;;;;;;;;;;20.50;62.50;;;;;;5002410;28;1258;-70
2023/08/08 06:58:00;;;;;;;;;;;20.50;62.60;;;;;;4997098;28;824;-71
2023/08/08 07:00:27;;;;;;;;;;;20.50;62.00;;;;;;5001778;28;1959;-74
2023/08/08 07:02:52;;;;;;;;;;;20.50;62.10;;;;;;4992999;28;1190;-72
2023/08/08 07:05:18;;;;;;;;;;;20.50;61.90;;;;;;5006278;28;1355;-72
2023/08/08 07:07:44;;;;;;;;;;;20.50;62.20;;;;;;4999312;28;962;-71
2023/08/08 07:10:11;;;;;;;;;;;20.50;61.50;;;;;;5001818;28;922;-72
2023/08/08 07:12:37;;;;;;;;;;;20.50;61.40;;;;;;5006169;28;872;-71
2023/08/08 07:15:02;;;;;;;;;;;20.50;61.20;;;;;;5005114;28;1325;-71
2023/08/08 07:17:28;;;;;;;;;;;20.40;61.40;;;;;;5002842;28;783;-73
2023/08/08 07:19:53;;;;;;;;;;;20.40;61.90;;;;;;4997702;28;1902;-71
2023/08/08 07:22:19;;;;;;;;;;;20.40;62.00;;;;;;5005643;28;950;-71
2023/08/08 07:24:44;;;;;;;;;;;20.40;62.00;;;;;;5006910;28;1261;-72
2023/08/08 07:27:10;;;;;;;;;;;20.40;61.80;;;;;;4998970;28;820;-70
2023/08/08 07:29:35;;;;;;;;;;;20.40;61.80;;;;;;4996513;28;888;-71
2023/08/08 07:32:02;;;;;;;;;;;20.40;62.00;;;;;;4999468;28;991;-72
2023/08/08 07:34:28;;;;;;;;;;;20.40;61.70;;;;;;4979031;28;1674;-71
2023/08/08 07:36:54;;;;;;;;;;;20.40;61.70;;;;;;4997362;28;1285;-71
2023/08/08 07:39:19;;;;;;;;;;;20.40;61.90;;;;;;4994350;28;875;-71
2023/08/08 07:41:45;;;;;;;;;;;20.40;61.90;;;;;;5000562;28;1981;-72
2023/08/08 07:44:10;;;;;;;;;;;20.40;61.80;;;;;;4999675;28;1265;-71
2023/08/08 07:46:36;;;;;;;;;;;20.40;61.80;;;;;;5001125;28;936;-71
2023/08/08 07:49:03;;;;;;;;;;;20.40;61.90;;;;;;4988713;28;2098;-73
2023/08/08 07:51:28;;;;;;;;;;;20.40;62.10;;;;;;5002628;28;1385;-71
2023/08/08 07:53:54;;;;;;;;;;;20.40;62.00;;;;;;5004093;28;1293;-71
2023/08/08 07:56:19;;;;;;;;;;;20.40;61.90;;;;;;5004779;28;1229;-72
2023/08/08 07:58:45;;;;;;;;;;;20.40;62.10;;;;;;5002603;28;1006;-71
2023/08/08 08:01:11;;;;;;;;;;;20.40;62.30;;;;;;5002947;28;1968;-70
2023/08/08 08:03:37;;;;;;;;;;;20.40;62.00;;;;;;5004362;28;902;-71
2023/08/08 08:06:02;;;;;;;;;;;20.40;61.50;;;;;;4986822;28;1584;-71
2023/08/08 08:08:28;;;;;;;;;;;20.40;61.50;;;;;;5001875;28;860;-72
2023/08/08 08:10:54;;;;;;;;;;;20.40;61.50;;;;;;4995710;28;951;-71
2023/08/08 08:13:19;;;;;;;;;;;20.40;61.70;;;;;;4986858;28;799;-71
2023/08/08 08:15:45;;;;;;;;;;;20.40;61.10;;;;;;5000407;28;1267;-71
2023/08/08 08:18:12;;;;;;;;;;;20.40;61.30;;;;;;5001452;28;887;-73
2023/08/08 08:20:37;;;;;;;;;;;20.40;61.60;;;;;;4982344;28;1954;-71
2023/08/08 08:23:03;;;;;;;;;;;20.40;61.70;;;;;;4995291;28;842;-71
2023/08/08 08:25:29;;;;;;;;;;;20.40;61.50;;;;;;5004466;28;1225;-72
2023/08/08 08:27:54;;;;;;;;;;;20.40;61.40;;;;;;5003707;28;865;-72
2023/08/08 08:30:19;;;;;;;;;;;20.40;61.30;;;;;;4992121;28;1372;-70
2023/08/08 08:32:45;;;;;;;;;;;20.40;61.20;;;;;;5004316;28;848;-71
2023/08/08 08:35:12;;;;;;;;;;;20.40;61.10;;;;;;4996941;28;1206;-70
2023/08/08 08:37:38;;;;;;;;;;;20.40;61.20;;;;;;4999368;28;813;-71
2023/08/08 08:40:04;;;;;;;;;;;20.40;61.30;;;;;;5003853;28;1911;-71
2023/08/08 08:42:30;;;;;;;;;;;20.40;61.30;;;;;;4998885;28;856;-71
2023/08/08 08:44:56;;;;;;;;;;;20.40;61.50;;;;;;4998805;28;1303;-72
2023/08/08 08:47:22;;;;;;;;;;;20.40;61.50;;;;;;5004334;28;880;-71
2023/08/08 08:49:47;;;;;;;;;;;20.40;61.70;;;;;;5000777;28;908;-73
2023/08/08 08:52:13;;;;;;;;;;;20.40;61.80;;;;;;5008978;28;824;-71
2023/08/08 08:54:39;;;;;;;;;;;20.40;61.70;;;;;;5007899;28;1433;-70
2023/08/08 08:57:04;;;;;;;;;;;20.40;61.80;;;;;;4996516;28;916;-71
2023/08/08 08:59:30;;;;;;;;;;;20.40;61.80;;;;;;5003089;28;1038;-71
2023/08/08 09:01:56;;;;;;;;;;;20.40;61.50;;;;;;5003022;28;1899;-70
2023/08/08 09:04:21;;;;;;;;;;;20.40;61.40;;;;;;4999224;28;1321;-70
2023/08/08 09:06:47;;;;;;;;;;;20.40;61.10;;;;;;4972519;28;1571;-71
2023/08/08 09:09:15;;;;;;;;;;;20.40;60.80;;;;;;5009141;28;888;-70
2023/08/08 09:11:51;;;;;;;;;;;20.40;61.00;;;;;;4996526;28;884;-71
2023/08/08 09:14:23;;;;;;;;;;;20.40;60.60;;;;;;5000210;28;1245;-72
2023/08/08 09:16:49;;;;;;;;;;;20.40;61.20;;;;;;4995927;28;824;-72
2023/08/08 09:19:15;;;;;;;;;;;20.40;61.10;;;;;;5004383;28;856;-71
2023/08/08 09:21:40;;;;;;;;;;;20.40;60.90;;;;;;4991745;28;1906;-71
2023/08/08 09:24:06;;;;;;;;;;;20.40;60.80;;;;;;5008780;28;908;-71
2023/08/08 09:26:31;;;;;;;;;;;20.40;61.00;;;;;;5002926;28;1189;-73
2023/08/08 09:28:57;;;;;;;;;;;20.40;61.00;;;;;;4983050;28;1564;-70
2023/08/08 09:31:26;;;;;;;;;;;20.40;60.80;;;;;;4994617;28;1449;-70
2023/08/08 09:33:53;;;;;;;;;;;20.40;60.80;;;;;;4989740;28;812;-72
2023/08/08 09:36:19;;;;;;;;;;;20.40;61.00;;;;;;5006916;28;1292;-70
2023/08/08 09:38:45;;;;;;;;;;;20.40;60.60;;;;;;5007564;28;863;-70
2023/08/08 09:41:11;;;;;;;;;;;20.40;60.10;;;;;;5004203;28;1894;-70
2023/08/08 09:43:36;;;;;;;;;;;20.40;60.20;;;;;;5000162;28;1754;-71
2023/08/08 09:46:02;;;;;;;;;;;20.40;59.80;;;;;;4993281;28;1464;-73
2023/08/08 09:48:31;;;;;;;;;;;20.40;59.60;;;;;;4988183;28;954;-71
2023/08/08 09:50:59;;;;;;;;;;;20.40;59.50;;;;;;5000139;28;923;-71
2023/08/08 09:53:25;;;;;;;;;;;20.40;59.20;;;;;;5002742;28;1705;-71
2023/08/08 09:55:51;;;;;;;;;;;20.40;59.10;;;;;;4993064;28;1343;-72
2023/08/08 09:58:16;;;;;;;;;;;20.40;59.20;;;;;;5000071;28;1070;-73
2023/08/08 10:00:42;;;;;;;;;;;20.40;59.40;;;;;;4984701;28;1914;-74
2023/08/08 10:03:07;;;;;;;;;;;20.40;59.30;;;;;;4990898;28;856;-72
2023/08/08 10:05:33;;;;;;;;;;;20.40;59.10;;;;;;4990712;28;1252;-73
2023/08/08 10:07:58;;;;;;;;;;;20.40;59.90;;;;;;4999802;28;861;-72
2023/08/08 10:10:24;;;;;;;;;;;20.40;59.70;;;;;;5005722;28;882;-72
2023/08/08 10:12:50;;;;;;;;;;;20.40;59.80;;;;;;5002309;28;876;-72
2023/08/08 10:15:15;;;;;;;;;;;20.40;59.60;;;;;;5003017;28;1280;-74
2023/08/08 10:17:41;;;;;;;;;;;20.40;59.70;;;;;;5001665;28;812;-71
2023/08/08 10:20:17;;;;;;;;;;;20.40;59.60;;;;;;5003300;28;1899;-69
2023/08/08 10:22:44;;;;;;;;;;;20.40;59.50;;;;;;5003899;28;833;-71
2023/08/08 10:25:16;;;;;;;;;;;20.40;59.80;;;;;;4995647;28;1296;-72
2023/08/08 10:27:42;;;;;;;;;;;20.40;59.70;;;;;;4998034;28;1272;-70
2023/08/08 10:30:12;;;;;;;;;;;20.40;59.70;;;;;;5006380;28;907;-70
2023/08/08 10:32:44;;;;;;;;;;;20.40;60.00;;;;;;5008398;28;891;-69
2023/08/08 10:35:09;;;;;;;;;;;20.40;60.00;;;;;;4997705;28;1270;-69
2023/08/08 10:37:36;;;;;;;;;;;20.40;59.90;;;;;;4986842;28;885;-70
2023/08/08 10:40:11;;;;;;;;;;;20.40;60.00;;;;;;5004562;28;1960;-69
2023/08/08 10:42:43;;;;;;;;;;;20.40;60.40;;;;;;4977021;28;1067;-70
2023/08/08 10:45:15;;;;;;;;;;;20.40;60.90;;;;;;5003411;28;1260;-69
2023/08/08 10:47:41;;;;;;;;;;;20.40;61.70;;;;;;5000569;28;863;-70
2023/08/08 10:50:08;;;;;;;;;;;20.40;62.40;;;;;;4991759;28;1246;-71
2023/08/08 10:52:52;;;;;;;;;;;20.40;62.80;;;;;;4986857;28;845;-70
2023/08/08 10:55:30;;;;;;;;;;;20.40;63.00;;;;;;5002915;28;1248;-69
2023/08/08 10:57:57;;;;;;;;;;;20.40;63.20;;;;;;4987082;28;844;-70
2023/08/08 11:00:24;;;;;;;;;;;20.40;63.50;;;;;;5003695;28;1902;-69
2023/08/08 11:02:50;;;;;;;;;;;20.40;63.60;;;;;;5001885;28;861;-70
2023/08/08 11:05:16;;;;;;;;;;;20.40;63.80;;;;;;5009233;28;1354;-70
2023/08/08 11:07:41;;;;;;;;;;;20.40;64.00;;;;;;4999106;28;1018;-71
2023/08/08 11:10:07;;;;;;;;;;;20.40;64.10;;;;;;5004811;28;872;-70
2023/08/08 11:12:32;;;;;;;;;;;20.40;64.20;;;;;;4999204;28;968;-70
2023/08/08 11:14:58;;;;;;;;;;;20.40;64.40;;;;;;5003361;28;1361;-70
2023/08/08 11:17:24;;;;;;;;;;;20.40;64.70;;;;;;4995898;28;916;-70
2023/08/08 11:19:50;;;;;;;;;;;20.40;64.80;;;;;;4999690;28;1966;-71
2023/08/08 11:22:15;;;;;;;;;;;20.40;64.90;;;;;;4990193;28;1396;-70
2023/08/08 11:24:41;;;;;;;;;;;20.40;65.10;;;;;;4986761;28;1576;-72
2023/08/08 11:27:06;;;;;;;;;;;20.40;65.10;;;;;;5005763;28;1053;-71
2023/08/08 11:29:32;;;;;;;;;;;20.40;65.10;;;;;;4987145;28;1179;-70
2023/08/08 11:32:01;;;;;;;;;;;20.40;65.10;;;;;;4990616;28;1185;-70
2023/08/08 11:34:29;;;;;;;;;;;20.40;65.20;;;;;;5004082;28;1266;-70
2023/08/08 11:36:55;;;;;;;;;;;20.40;64.60;;;;;;5003827;28;862;-70
2023/08/08 11:39:20;;;;;;;;;;;20.40;64.70;;;;;;4991295;28;884;-71
2023/08/08 11:41:46;;;;;;;;;;;20.40;64.80;;;;;;5000979;28;2018;-70
2023/08/08 11:44:11;;;;;;;;;;;20.40;64.70;;;;;;5003527;28;1264;-70
2023/08/08 11:46:44;;;;;;;;;;;20.40;64.50;;;;;;4986088;28;1678;-71
2023/08/08 11:49:09;;;;;;;;;;;20.40;64.20;;;;;;4986090;28;1292;-70
2023/08/08 11:51:35;;;;;;;;;;;20.40;64.20;;;;;;5004826;28;852;-72
2023/08/08 11:54:01;;;;;;;;;;;20.40;64.40;;;;;;4999113;28;900;-70
2023/08/08 11:56:26;;;;;;;;;;;20.40;64.40;;;;;;4987215;28;1221;-71
2023/08/08 11:58:52;;;;;;;;;;;20.40;64.60;;;;;;4975719;28;1305;-70
2023/08/08 12:01:25;;;;;;;;;;;20.40;64.80;;;;;;5002283;28;1906;-71
2023/08/08 12:03:51;;;;;;;;;;;20.40;64.90;;;;;;5001036;28;892;-71
2023/08/08 12:06:17;;;;;;;;;;;20.40;65.10;;;;;;4998432;28;1205;-71
2023/08/08 12:08:43;;;;;;;;;;;20.40;65.30;;;;;;4986594;28;2148;-70
2023/08/08 12:11:09;;;;;;;;;;;20.40;65.40;;;;;;4996014;28;2280;-71
2023/08/08 12:13:36;;;;;;;;;;;20.40;65.70;;;;;;5001776;28;998;-71
2023/08/08 12:16:04;;;;;;;;;;;20.40;65.90;;;;;;4992201;28;1281;-72
2023/08/08 12:18:30;;;;;;;;;;;20.40;66.00;;;;;;4999644;28;1279;-71
2023/08/08 12:20:55;;;;;;;;;;;20.40;66.20;;;;;;5002273;28;1906;-72
2023/08/08 12:23:21;;;;;;;;;;;20.40;66.50;;;;;;4999374;28;2347;-71
2023/08/08 12:25:46;;;;;;;;;;;20.40;66.30;;;;;;5001904;28;1378;-71
2023/08/08 12:28:12;;;;;;;;;;;20.50;66.10;;;;;;4997296;28;1349;-72
2023/08/08 12:30:37;;;;;;;;;;;20.50;66.00;;;;;;5001292;28;955;-71
2023/08/08 12:33:03;;;;;;;;;;;20.40;65.80;;;;;;4990378;28;1400;-71
2023/08/08 12:35:29;;;;;;;;;;;20.50;65.90;;;;;;4997692;28;1268;-71
2023/08/08 12:37:54;;;;;;;;;;;20.50;65.80;;;;;;4983705;28;908;-71
2023/08/08 12:40:20;;;;;;;;;;;20.40;65.80;;;;;;5000114;28;2125;-71
2023/08/08 12:42:45;;;;;;;;;;;20.50;65.90;;;;;;5000094;28;1971;-72
2023/08/08 12:45:11;;;;;;;;;;;20.50;65.80;;;;;;4986062;28;1465;-71
2023/08/08 12:47:37;;;;;;;;;;;20.50;65.90;;;;;;4995833;28;1468;-71
2023/08/08 12:50:05;;;;;;;;;;;20.50;65.90;;;;;;4993673;28;2086;-72
2023/08/08 12:52:31;;;;;;;;;;;20.50;65.90;;;;;;4999530;28;1197;-72
2023/08/08 12:54:56;;;;;;;;;;;20.50;65.90;;;;;;4997942;28;1263;-71
2023/08/08 12:57:22;;;;;;;;;;;20.50;65.90;;;;;;4996917;28;943;-71
2023/08/08 12:59:47;;;;;;;;;;;20.50;66.00;;;;;;4997255;28;1981;-71
2023/08/08 13:02:13;;;;;;;;;;;20.50;65.90;;;;;;4997033;28;1224;-71
2023/08/08 13:04:38;;;;;;;;;;;20.50;66.00;;;;;;4997064;28;1386;-72
2023/08/08 13:07:04;;;;;;;;;;;20.50;66.00;;;;;;4997202;28;1465;-72
2023/08/08 13:09:29;;;;;;;;;;;20.50;66.00;;;;;;4997643;28;869;-71
2023/08/08 13:11:55;;;;;;;;;;;20.50;66.00;;;;;;4996368;28;883;-71
2023/08/08 13:14:21;;;;;;;;;;;20.50;66.00;;;;;;4996420;28;1232;-71
2023/08/08 13:16:46;;;;;;;;;;;20.50;66.00;;;;;;4995107;28;1259;-71
2023/08/08 13:19:11;;;;;;;;;;;20.50;66.00;;;;;;4997239;28;1271;-71
2023/08/08 13:21:37;;;;;;;;;;;20.50;66.10;;;;;;4997728;28;1934;-71
2023/08/08 13:24:04;;;;;;;;;;;20.50;66.10;;;;;;4996665;28;887;-72
2023/08/08 13:26:29;;;;;;;;;;;20.50;66.10;;;;;;4993427;28;1310;-72
2023/08/08 13:28:55;;;;;;;;;;;20.50;66.20;;;;;;4995099;28;1339;-72
2023/08/08 13:31:20;;;;;;;;;;;20.50;66.20;;;;;;5000240;28;939;-71
2023/08/08 13:33:45;;;;;;;;;;;20.50;66.20;;;;;;5002466;28;864;-72
2023/08/08 13:36:11;;;;;;;;;;;20.50;66.20;;;;;;5001188;28;1255;-71
2023/08/08 13:38:36;;;;;;;;;;;20.50;66.30;;;;;;4999330;28;1008;-72
2023/08/08 13:41:02;;;;;;;;;;;20.50;66.20;;;;;;4998728;28;1975;-72
2023/08/08 13:43:29;;;;;;;;;;;20.50;66.30;;;;;;4998346;28;1002;-72
2023/08/08 13:45:54;;;;;;;;;;;20.50;66.30;;;;;;4998929;28;1264;-72
2023/08/08 13:48:20;;;;;;;;;;;20.50;66.30;;;;;;4998578;28;957;-71
2023/08/08 13:50:45;;;;;;;;;;;20.50;66.30;;;;;;4998834;28;888;-71
2023/08/08 13:53:10;;;;;;;;;;;20.50;66.30;;;;;;5002319;28;1487;-71
2023/08/08 13:55:39;;;;;;;;;;;20.50;66.30;;;;;;5000147;28;1287;-72
2023/08/08 13:58:05;;;;;;;;;;;20.50;66.30;;;;;;4999329;28;840;-72
2023/08/08 14:00:31;;;;;;;;;;;20.50;66.30;;;;;;4999219;28;1914;-71
2023/08/08 14:02:57;;;;;;;;;;;20.50;66.40;;;;;;5003866;28;1346;-72
2023/08/08 14:05:22;;;;;;;;;;;20.50;66.40;;;;;;5000777;28;1288;-71
2023/08/08 14:07:48;;;;;;;;;;;20.50;66.40;;;;;;4997036;28;1263;-71
2023/08/08 14:10:13;;;;;;;;;;;20.50;66.40;;;;;;4996292;28;918;-72
2023/08/08 14:12:39;;;;;;;;;;;20.50;66.40;;;;;;4998927;28;847;-72
2023/08/08 14:15:05;;;;;;;;;;;20.50;66.40;;;;;;5003242;28;1263;-71
2023/08/08 14:17:30;;;;;;;;;;;20.50;66.40;;;;;;5001109;28;1006;-71
2023/08/08 14:19:56;;;;;;;;;;;20.50;66.50;;;;;;5001066;28;1902;-71
2023/08/08 14:22:21;;;;;;;;;;;20.50;66.40;;;;;;4999249;28;900;-71
2023/08/08 14:24:47;;;;;;;;;;;20.50;66.50;;;;;;4997762;28;1284;-71
2023/08/08 14:27:12;;;;;;;;;;;20.50;66.50;;;;;;4999077;28;1349;-71